Time;durP1;ratioP1;P1;durP2;ratioP2;P2;SDS_P1;SDS_P2;PMS_P1;PMS_P2;Temp;Humidity;BMP_temperature;BMP_pressure;BME280_temperature;BME280_humidity;BME280_pressure;Samples;Min_cycle;Max_cycle;Signal;HPM_P1;HPM_P2
2022/04/27 05:00:55;;;;;;;12.90;8.27;;;8.60;99.90;;;;;;5721037;23;20415;-78
2022/04/27 05:03:22;;;;;;;12.60;8.27;;;8.60;99.90;;;;;;4994411;28;20046;-78
2022/04/27 05:05:49;;;;;;;14.00;8.82;;;8.60;99.90;;;;;;4995745;28;20380;-78
2022/04/27 05:08:16;;;;;;;12.70;8.05;;;8.70;99.90;;;;;;4995517;28;20046;-78
2022/04/27 05:10:43;;;;;;;13.00;8.55;;;8.60;99.90;;;;;;4995518;28;20052;-79
2022/04/27 05:13:10;;;;;;;12.70;7.72;;;8.50;99.90;;;;;;4995538;28;20046;-79
2022/04/27 05:15:37;;;;;;;12.32;7.78;;;8.60;99.90;;;;;;4995460;28;20578;-79
2022/04/27 05:18:06;;;;;;;11.88;7.75;;;8.80;99.90;;;;;;4995439;28;20084;-79
2022/04/27 05:20:33;;;;;;;11.63;7.50;;;8.80;99.90;;;;;;4995303;28;20054;-79
2022/04/27 05:23:00;;;;;;;12.13;7.70;;;8.80;99.90;;;;;;4995167;28;20050;-79
2022/04/27 05:25:27;;;;;;;11.50;7.13;;;8.90;99.90;;;;;;4995487;28;20084;-78
2022/04/27 05:27:54;;;;;;;12.15;7.90;;;8.90;99.90;;;;;;4995075;28;20129;-78
2022/04/27 05:33:10;;;;;;;13.10;8.52;;;9.00;99.90;;;;;;4977765;28;20402;-79
2022/04/27 05:35:40;;;;;;;12.18;8.15;;;8.90;99.90;;;;;;4994927;28;20056;-79
2022/04/27 05:38:08;;;;;;;12.68;7.95;;;9.00;99.90;;;;;;4994949;28;20046;-79
2022/04/27 05:40:35;;;;;;;13.02;8.20;;;9.10;99.90;;;;;;4994883;28;20055;-79
2022/04/27 05:43:05;;;;;;;14.25;8.70;;;9.10;99.90;;;;;;4994852;28;20054;-78
2022/04/27 05:45:32;;;;;;;15.55;10.40;;;9.00;99.90;;;;;;4994915;28;20042;-79
2022/04/27 05:47:59;;;;;;;17.55;10.93;;;8.80;99.90;;;;;;4994604;28;20058;-79
2022/04/27 05:50:28;;;;;;;16.98;11.15;;;8.60;99.90;;;;;;4994550;28;20054;-78
2022/04/27 05:52:58;;;;;;;17.40;11.45;;;8.60;99.90;;;;;;4995004;28;20042;-79
2022/04/27 05:55:26;;;;;;;16.20;10.18;;;8.60;99.90;;;;;;4994852;28;20046;-78
2022/04/27 05:57:53;;;;;;;18.02;11.85;;;8.70;99.90;;;;;;4994599;28;20053;-78
2022/04/27 06:00:20;;;;;;;16.48;11.52;;;8.70;99.90;;;;;;4993971;28;20050;-78
2022/04/27 06:02:47;;;;;;;19.50;13.30;;;8.50;99.90;;;;;;4994388;28;20475;-78
2022/04/27 06:05:14;;;;;;;17.20;11.95;;;8.50;99.90;;;;;;4994564;28;20050;-78
2022/04/27 06:07:42;;;;;;;20.10;12.68;;;8.50;99.90;;;;;;4994512;28;20125;-78
2022/04/27 06:10:11;;;;;;;18.90;13.07;;;8.50;99.90;;;;;;4994400;28;20054;-79
2022/04/27 06:12:46;;;;;;;18.50;12.48;;;8.50;99.90;;;;;;4994344;28;20046;-78
2022/04/27 06:15:14;;;;;;;16.25;11.23;;;8.60;99.90;;;;;;4994159;28;20443;-79
2022/04/27 06:17:42;;;;;;;18.02;12.45;;;8.70;99.90;;;;;;4994365;28;20052;-78
2022/04/27 06:20:11;;;;;;;17.58;12.07;;;8.70;99.90;;;;;;4994187;28;20411;-79
2022/04/27 06:22:38;;;;;;;17.70;12.07;;;8.80;99.90;;;;;;4994111;28;20046;-78
2022/04/27 06:25:08;;;;;;;18.80;12.35;;;9.00;99.90;;;;;;4991628;28;20052;-78
2022/04/27 06:27:35;;;;;;;17.58;12.18;;;9.00;99.90;;;;;;4993990;28;20049;-78
2022/04/27 06:30:03;;;;;;;16.70;11.05;;;8.90;99.90;;;;;;4994081;28;20064;-78
2022/04/27 06:32:32;;;;;;;17.67;11.73;;;9.10;99.90;;;;;;4994001;28;20046;-78
2022/04/27 06:34:59;;;;;;;16.33;10.75;;;9.20;99.90;;;;;;4993851;28;20488;-78
2022/04/27 06:37:26;;;;;;;16.75;11.40;;;9.20;99.90;;;;;;4993682;28;20056;-79
2022/04/27 06:39:53;;;;;;;15.13;10.68;;;9.30;99.90;;;;;;4993756;28;20152;-78
2022/04/27 06:42:22;;;;;;;15.43;11.57;;;9.40;99.90;;;;;;4993764;28;20047;-78
2022/04/27 06:44:50;;;;;;;15.75;11.05;;;9.60;99.90;;;;;;4993951;28;20154;-78
2022/04/27 06:47:17;;;;;;;18.05;11.95;;;9.60;99.90;;;;;;4993667;28;20563;-79
2022/04/27 06:49:44;;;;;;;16.08;11.40;;;9.60;99.90;;;;;;4993640;28;20056;-78
2022/04/27 06:52:11;;;;;;;15.68;11.00;;;9.60;99.90;;;;;;4993796;28;20047;-79
2022/04/27 06:54:38;;;;;;;14.55;10.55;;;9.50;99.90;;;;;;4993616;28;20422;-78
2022/04/27 06:57:05;;;;;;;16.60;11.80;;;9.60;99.90;;;;;;4993706;28;20129;-78
2022/04/27 06:59:34;;;;;;;13.27;9.80;;;9.60;99.90;;;;;;4993493;28;20089;-79
2022/04/27 07:02:01;;;;;;;14.50;10.35;;;9.70;99.90;;;;;;4993400;28;20064;-79
2022/04/27 07:04:29;;;;;;;15.48;10.48;;;9.70;99.90;;;;;;4993608;28;20078;-79
2022/04/27 07:06:56;;;;;;;14.48;10.48;;;9.70;99.90;;;;;;4993497;28;20050;-79
2022/04/27 07:09:24;;;;;;;16.40;11.00;;;9.80;99.90;;;;;;4993562;28;20129;-79
2022/04/27 07:11:52;;;;;;;15.40;10.98;;;9.80;99.90;;;;;;4992978;28;20133;-79
2022/04/27 07:14:19;;;;;;;15.18;10.38;;;9.90;99.90;;;;;;4993300;28;20073;-79
2022/04/27 07:16:48;;;;;;;15.55;10.85;;;10.00;99.90;;;;;;4993321;28;20236;-79
2022/04/27 07:19:15;;;;;;;16.27;10.77;;;10.10;99.90;;;;;;4993398;28;20527;-79
2022/04/27 07:21:42;;;;;;;16.17;10.38;;;10.10;99.90;;;;;;4993035;28;20539;-79
2022/04/27 07:24:09;;;;;;;16.02;11.02;;;10.10;99.90;;;;;;4993547;28;20141;-79
2022/04/27 07:26:37;;;;;;;16.88;11.48;;;10.20;99.90;;;;;;4993121;28;20399;-78
2022/04/27 07:29:04;;;;;;;17.42;10.57;;;10.20;99.90;;;;;;4993115;28;20414;-79
2022/04/27 07:31:32;;;;;;;17.58;10.75;;;10.20;99.90;;;;;;4992736;28;20050;-79
2022/04/27 07:34:00;;;;;;;16.67;11.30;;;10.30;99.90;;;;;;4992917;28;20105;-79
2022/04/27 07:36:27;;;;;;;15.20;10.68;;;10.20;99.90;;;;;;4993161;28;20046;-78
2022/04/27 07:38:54;;;;;;;15.07;10.23;;;10.20;99.90;;;;;;4993235;28;20042;-79
2022/04/27 07:41:21;;;;;;;12.98;9.98;;;10.20;99.90;;;;;;4993143;28;20484;-79
2022/04/27 07:43:48;;;;;;;12.90;9.27;;;10.00;99.90;;;;;;4993210;28;20050;-79
2022/04/27 07:46:15;;;;;;;12.40;8.90;;;10.00;99.90;;;;;;4992969;28;20488;-79
2022/04/27 07:48:42;;;;;;;12.98;9.65;;;10.20;99.90;;;;;;4993009;28;20137;-79
2022/04/27 07:51:11;;;;;;;13.70;9.40;;;10.40;99.90;;;;;;4993039;28;20407;-79
2022/04/27 07:53:38;;;;;;;13.88;9.48;;;10.50;99.90;;;;;;4993243;28;20411;-79
2022/04/27 07:56:06;;;;;;;14.13;9.43;;;10.50;99.90;;;;;;4992935;28;20377;-79
2022/04/27 07:58:34;;;;;;;12.75;9.20;;;10.50;99.90;;;;;;4992885;28;20053;-79
2022/04/27 08:01:01;;;;;;;12.20;8.75;;;10.50;99.90;;;;;;4992431;28;20133;-79
2022/04/27 08:03:28;;;;;;;11.60;8.45;;;10.50;99.90;;;;;;4992919;28;20042;-79
2022/04/27 08:05:55;;;;;;;11.60;8.35;;;10.60;99.90;;;;;;4993015;28;20047;-79
2022/04/27 08:08:24;;;;;;;12.90;9.02;;;10.60;99.90;;;;;;4993126;28;20053;-79
2022/04/27 08:10:51;;;;;;;13.10;8.95;;;10.60;99.90;;;;;;4992844;28;20054;-79
2022/04/27 08:13:18;;;;;;;12.23;8.48;;;10.70;99.90;;;;;;4992822;28;20046;-78
2022/04/27 08:15:45;;;;;;;13.13;8.77;;;10.60;99.90;;;;;;4992752;28;20046;-79
2022/04/27 08:18:12;;;;;;;12.02;8.68;;;10.70;99.90;;;;;;4992792;28;20404;-79
2022/04/27 08:23:31;;;;;;;10.68;7.53;;;10.90;99.90;;;;;;4994378;28;20065;-79
2022/04/27 08:26:01;;;;;;;9.68;6.60;;;11.00;99.90;;;;;;4996322;28;20471;-79
2022/04/27 08:28:29;;;;;;;9.73;6.53;;;11.10;99.90;;;;;;4996090;28;20173;-79
2022/04/27 08:30:56;;;;;;;10.60;7.35;;;11.20;99.90;;;;;;4996022;28;20048;-79
2022/04/27 08:33:24;;;;;;;9.45;6.82;;;11.20;99.90;;;;;;4992533;28;20531;-81
2022/04/27 08:35:51;;;;;;;9.52;6.60;;;11.20;99.90;;;;;;4993621;28;20065;-80
2022/04/27 08:38:18;;;;;;;9.85;6.65;;;11.20;99.90;;;;;;4993322;28;20127;-80
2022/04/27 08:40:47;;;;;;;9.90;6.93;;;11.20;99.90;;;;;;4993272;28;20046;-81
2022/04/27 08:43:15;;;;;;;10.00;7.30;;;11.20;99.90;;;;;;4993628;28;20050;-80
2022/04/27 08:45:44;;;;;;;11.00;7.20;;;11.20;99.90;;;;;;4992976;28;20418;-80
2022/04/27 08:48:14;;;;;;;9.43;6.55;;;11.40;99.90;;;;;;4993476;28;20050;-80
2022/04/27 08:50:42;;;;;;;9.48;6.85;;;11.40;99.90;;;;;;4992733;28;20064;-81
2022/04/27 08:53:09;;;;;;;10.68;6.97;;;11.40;99.90;;;;;;4992095;28;20050;-80
2022/04/27 08:55:38;;;;;;;10.23;7.10;;;11.50;99.90;;;;;;4993136;28;20076;-81
2022/04/27 08:58:12;;;;;;;9.13;6.18;;;11.40;99.90;;;;;;4993125;28;20050;-81
2022/04/27 09:00:40;;;;;;;10.75;6.55;;;11.50;99.90;;;;;;4993236;28;20066;-80
2022/04/27 09:03:25;;;;;;;8.73;6.32;;;11.60;99.90;;;;;;4993265;28;20049;-80
2022/04/27 09:05:53;;;;;;;;;;;11.80;99.90;;;;;;4995653;28;20050;-81
2022/04/27 09:08:21;;;;;;;10.43;6.70;;;11.80;99.90;;;;;;5012528;28;19932;-80
2022/04/27 09:10:48;;;;;;;9.50;6.05;;;11.80;99.90;;;;;;5012297;28;20085;-81
2022/04/27 09:13:16;;;;;;;8.63;5.60;;;12.00;99.90;;;;;;5012485;28;20060;-80
2022/04/27 09:15:43;;;;;;;8.57;5.95;;;12.00;99.90;;;;;;5012420;28;20455;-82
2022/04/27 09:21:01;;;;;;;;;;;12.10;99.90;;;;;;5012524;28;20077;-80
2022/04/27 09:23:37;;;;;;;7.75;4.75;;;12.30;99.90;;;;;;5012078;28;20711;-80
2022/04/27 09:26:16;;;;;;;6.45;4.70;;;12.40;99.90;;;;;;5012388;28;20046;-80
2022/04/27 09:28:48;;;;;;;7.35;4.70;;;12.30;99.90;;;;;;5012151;28;20498;-80
2022/04/27 09:31:30;;;;;;;6.95;4.90;;;12.40;99.90;;;;;;5012537;28;20054;-80
2022/04/27 09:34:01;;;;;;;7.35;5.03;;;12.50;99.90;;;;;;5011973;28;20495;-79
2022/04/27 09:36:29;;;;;;;7.30;4.68;;;12.60;99.90;;;;;;5011743;28;20056;-79
2022/04/27 09:38:57;;;;;;;7.05;5.03;;;12.60;99.90;;;;;;5012060;28;20109;-79
2022/04/27 09:41:40;;;;;;;7.82;4.95;;;12.40;99.90;;;;;;5011972;28;20148;-79
2022/04/27 09:44:09;;;;;;;8.13;5.40;;;12.60;99.90;;;;;;5012036;28;20049;-80
2022/04/27 09:46:41;;;;;;;7.45;4.78;;;12.40;99.90;;;;;;5011665;28;20081;-79
2022/04/27 09:49:11;;;;;;;6.45;4.63;;;12.50;99.90;;;;;;4994016;28;20061;-79
2022/04/27 09:51:47;;;;;;;7.22;4.80;;;12.50;99.90;;;;;;5009622;28;20468;-79
2022/04/27 09:54:18;;;;;;;7.05;4.72;;;12.40;99.90;;;;;;5011839;28;20054;-79
2022/04/27 09:56:54;;;;;;;7.30;4.75;;;12.40;99.90;;;;;;5011347;28;20056;-79
2022/04/27 09:59:26;;;;;;;6.55;4.25;;;12.30;99.90;;;;;;5011816;28;20468;-79
2022/04/27 10:01:57;;;;;;;6.53;3.83;;;12.30;99.90;;;;;;5011488;28;20062;-79
2022/04/27 10:04:29;;;;;;;7.05;4.68;;;12.30;99.90;;;;;;5011408;28;20518;-79
2022/04/27 10:06:59;;;;;;;6.10;4.10;;;12.30;99.90;;;;;;5011685;28;20050;-78
2022/04/27 10:09:27;;;;;;;6.15;3.85;;;12.40;99.90;;;;;;5010878;28;20049;-78
2022/04/27 10:11:56;;;;;;;6.13;3.90;;;12.50;99.90;;;;;;5011096;28;20054;-79
2022/04/27 10:14:27;;;;;;;5.30;3.40;;;12.50;99.90;;;;;;5011097;28;20145;-79
2022/04/27 10:16:55;;;;;;;5.53;3.42;;;12.50;99.90;;;;;;5011175;28;20050;-79
2022/04/27 10:19:22;;;;;;;6.53;4.05;;;12.70;99.90;;;;;;5011374;28;20056;-79
2022/04/27 10:21:57;;;;;;;5.95;3.75;;;12.80;99.90;;;;;;5011074;28;20050;-79
2022/04/27 10:24:49;;;;;;;6.55;4.22;;;12.80;99.90;;;;;;5011668;28;20191;-79
2022/04/27 10:27:18;;;;;;;6.40;4.10;;;12.90;99.90;;;;;;5011057;28;20077;-78
2022/04/27 10:29:50;;;;;;;6.93;4.43;;;12.90;99.90;;;;;;5011227;28;20049;-79
2022/04/27 10:32:36;;;;;;;6.63;3.95;;;12.80;99.90;;;;;;5010630;28;20487;-78
2022/04/27 10:35:25;;;;;;;7.18;4.30;;;12.60;99.90;;;;;;5010995;28;20056;-79
2022/04/27 10:37:57;;;;;;;6.40;4.00;;;12.60;99.90;;;;;;5011097;28;20131;-79
2022/04/27 10:40:30;;;;;;;7.25;4.20;;;12.80;99.90;;;;;;5010542;28;20073;-79
2022/04/27 10:43:13;;;;;;;5.65;3.70;;;12.80;99.90;;;;;;5010762;28;20517;-79
2022/04/27 10:45:43;;;;;;;6.60;3.90;;;12.80;99.90;;;;;;5010309;28;20054;-79
2022/04/27 10:48:17;;;;;;;5.85;3.40;;;12.80;99.90;;;;;;4990965;28;20054;-79
2022/04/27 10:51:00;;;;;;;6.38;3.80;;;12.70;99.90;;;;;;4989918;28;20052;-78
2022/04/27 10:53:29;;;;;;;5.13;3.15;;;12.70;99.90;;;;;;4991176;28;20058;-79
2022/04/27 10:55:58;;;;;;;5.60;3.40;;;12.80;99.90;;;;;;4990996;28;20498;-79
2022/04/27 10:58:37;;;;;;;5.07;3.17;;;12.90;99.90;;;;;;4991067;28;20484;-79
2022/04/27 11:01:30;;;;;;;5.07;2.97;;;13.00;99.90;;;;;;4991102;28;20089;-78
2022/04/27 11:04:20;;;;;;;4.30;2.67;;;13.00;99.90;;;;;;4991068;28;20081;-79
2022/04/27 11:07:21;;;;;;;5.10;3.40;;;13.30;99.90;;;;;;4982090;28;20054;-79
2022/04/27 11:10:11;;;;;;;5.07;2.90;;;13.30;99.90;;;;;;4991966;28;20418;-78
2022/04/27 11:12:40;;;;;;;4.97;3.08;;;13.30;99.50;;;;;;5005822;28;20064;-79
2022/04/27 11:15:10;;;;;;;5.53;2.90;;;13.10;99.40;;;;;;5012920;28;20442;-78
2022/04/27 11:17:40;;;;;;;4.13;2.75;;;13.30;99.20;;;;;;5013049;28;20056;-79
2022/04/27 11:20:23;;;;;;;4.07;2.38;;;13.50;99.50;;;;;;5013118;28;20056;-79
2022/04/27 11:22:51;;;;;;;4.10;2.60;;;13.50;98.80;;;;;;5013091;28;20042;-79
2022/04/27 11:25:26;;;;;;;5.50;3.10;;;13.40;98.40;;;;;;5012948;28;20050;-79
2022/04/27 11:27:53;;;;;;;6.15;2.72;;;13.20;98.70;;;;;;5013003;28;20041;-79
2022/04/27 11:30:22;;;;;;;4.47;2.85;;;13.30;98.60;;;;;;5013013;28;20140;-78
2022/04/27 11:32:51;;;;;;;5.22;3.50;;;13.30;98.00;;;;;;5012728;28;20050;-78
2022/04/27 11:35:22;;;;;;;5.25;3.35;;;13.30;97.80;;;;;;5012365;28;20049;-78
2022/04/27 11:37:52;;;;;;;4.70;3.03;;;13.30;98.00;;;;;;5012762;28;20085;-78
2022/04/27 11:40:25;;;;;;;6.55;4.30;;;13.20;98.80;;;;;;5012967;28;20046;-78
2022/04/27 11:42:53;;;;;;;5.88;3.88;;;13.20;99.80;;;;;;5012752;28;20061;-79
2022/04/27 11:45:22;;;;;;;5.45;3.40;;;13.30;99.60;;;;;;5012798;28;20072;-79
2022/04/27 11:48:01;;;;;;;6.97;3.53;;;13.30;99.50;;;;;;5012834;28;20475;-78
2022/04/27 11:50:32;;;;;;;6.03;3.92;;;13.40;99.40;;;;;;5012558;28;20495;-79
2022/04/27 11:53:00;;;;;;;5.13;3.38;;;13.40;99.30;;;;;;5012850;28;20052;-79
2022/04/27 11:55:28;;;;;;;5.80;3.70;;;13.50;99.00;;;;;;5012691;28;20046;-79
2022/04/27 11:57:56;;;;;;;4.50;2.90;;;13.50;98.80;;;;;;4998663;28;20125;-79
2022/04/27 12:00:27;;;;;;;4.38;2.90;;;13.40;98.90;;;;;;4994049;28;20065;-79
2022/04/27 12:02:54;;;;;;;5.25;3.17;;;13.60;99.20;;;;;;4999393;28;20046;-79
2022/04/27 12:05:34;;;;;;;4.82;2.80;;;13.90;98.80;;;;;;5013955;28;20082;-78
2022/04/27 12:08:03;;;;;;;4.60;3.00;;;14.10;99.00;;;;;;5013834;28;20081;-79
2022/04/27 12:10:31;;;;;;;3.90;2.55;;;14.10;98.30;;;;;;5013543;28;20050;-79
2022/04/27 12:13:00;;;;;;;4.30;2.75;;;14.00;98.10;;;;;;5013677;28;20128;-78
2022/04/27 12:15:29;;;;;;;4.88;2.80;;;14.00;97.70;;;;;;5013584;28;20114;-78
2022/04/27 12:17:57;;;;;;;3.90;2.58;;;14.10;98.10;;;;;;5013556;28;20049;-78
2022/04/27 12:20:37;;;;;;;3.60;2.30;;;14.50;97.60;;;;;;5013206;28;20056;-79
2022/04/27 12:23:06;;;;;;;4.32;2.60;;;14.30;96.60;;;;;;5013497;28;20092;-78
2022/04/27 12:25:43;;;;;;;4.25;2.65;;;14.30;96.60;;;;;;5013180;28;20054;-78
2022/04/27 12:28:14;;;;;;;3.38;2.20;;;14.20;96.20;;;;;;5013655;28;20050;-78
2022/04/27 12:30:44;;;;;;;3.50;2.20;;;14.10;96.10;;;;;;5013804;28;20151;-78
2022/04/27 12:33:12;;;;;;;3.42;2.10;;;14.10;96.50;;;;;;5013432;28;20072;-78
2022/04/27 12:38:30;;;;;;;4.13;2.33;;;14.40;97.00;;;;;;4993500;28;20055;-78
2022/04/27 12:40:59;;;;;;;5.25;2.50;;;14.50;95.80;;;;;;4993753;28;20061;-79
2022/04/27 12:43:27;;;;;;;4.05;2.22;;;14.30;95.20;;;;;;4991517;28;20054;-79
2022/04/27 12:46:10;;;;;;;3.60;2.25;;;14.40;94.30;;;;;;4993347;28;20050;-79
2022/04/27 12:48:38;;;;;;;4.00;1.98;;;14.50;95.00;;;;;;4993918;28;20057;-79
2022/04/27 12:51:09;;;;;;;4.90;2.33;;;14.60;95.00;;;;;;4993195;28;20141;-79
2022/04/27 12:53:36;;;;;;;3.17;1.77;;;15.00;94.80;;;;;;4993274;28;20475;-78
2022/04/27 12:56:19;;;;;;;4.20;2.08;;;15.30;94.50;;;;;;4992986;28;20054;-79
2022/04/27 12:59:04;;;;;;;3.05;1.60;;;15.40;94.30;;;;;;4993167;28;20050;-79
2022/04/27 13:01:31;;;;;;;3.63;1.67;;;15.70;92.60;;;;;;4993091;28;20054;-79
2022/04/27 13:03:59;;;;;;;3.42;1.67;;;15.80;92.90;;;;;;4996585;28;20045;-78
2022/04/27 13:06:30;;;;;;;3.58;1.90;;;16.20;92.90;;;;;;5012532;28;20053;-78
2022/04/27 13:11:55;;;;;;;3.67;1.90;;;16.40;92.10;;;;;;5011768;28;20065;-78
2022/04/27 13:11:56;;;;;;;5.22;2.65;;;16.50;90.90;;;;;;5012263;28;20054;-78
2022/04/27 13:14:24;;;;;;;3.70;2.22;;;16.60;90.30;;;;;;5012497;28;20085;-78
2022/04/27 13:16:51;;;;;;;3.75;2.00;;;16.20;89.70;;;;;;5012641;28;20049;-78
2022/04/27 13:19:18;;;;;;;3.65;2.08;;;16.50;90.10;;;;;;5012293;28;20124;-78
2022/04/27 13:21:47;;;;;;;3.90;2.30;;;16.60;88.00;;;;;;5012072;28;20057;-78
2022/04/27 13:24:14;;;;;;;3.63;2.20;;;17.10;89.00;;;;;;5012161;28;20061;-79
2022/04/27 13:26:41;;;;;;;4.40;2.03;;;17.20;91.00;;;;;;5012334;28;20483;-78
2022/04/27 13:29:08;;;;;;;4.30;1.90;;;17.60;86.50;;;;;;5012318;28;20133;-78
2022/04/27 13:31:36;;;;;;;3.92;1.95;;;17.70;89.60;;;;;;5011808;28;20056;-78
2022/04/27 13:34:03;;;;;;;4.47;2.20;;;17.60;89.10;;;;;;5011771;28;20057;-79
2022/04/27 13:36:30;;;;;;;3.85;2.00;;;17.60;87.30;;;;;;5011817;28;20060;-79
2022/04/27 13:38:59;;;;;;;3.22;1.88;;;17.50;84.10;;;;;;5011714;28;20487;-84
2022/04/27 13:41:26;;;;;;;2.80;1.30;;;17.30;81.50;;;;;;5011844;28;20050;-83
2022/04/27 13:43:55;;;;;;;4.00;1.70;;;17.00;82.00;;;;;;5009851;28;20418;-83
2022/04/27 13:46:23;;;;;;;3.55;1.42;;;16.90;80.20;;;;;;5011681;28;20042;-83
2022/04/27 13:48:50;;;;;;;3.83;1.30;;;16.90;81.50;;;;;;5011718;28;20050;-83
2022/04/27 13:51:18;;;;;;;2.67;1.40;;;17.30;81.10;;;;;;5011601;28;20046;-83
2022/04/27 13:53:45;;;;;;;3.13;1.30;;;18.30;80.30;;;;;;5012025;28;20077;-82
2022/04/27 13:56:14;;;;;;;2.83;1.60;;;18.20;80.20;;;;;;5011965;28;20056;-83
2022/04/27 13:58:41;;;;;;;3.50;1.63;;;19.30;78.90;;;;;;5011290;28;20056;-83
2022/04/27 14:01:09;;;;;;;3.88;1.75;;;18.80;76.20;;;;;;5011481;28;20054;-83
2022/04/27 14:03:36;;;;;;;2.78;1.48;;;18.00;75.00;;;;;;5011293;28;20495;-83
2022/04/27 14:06:03;;;;;;;2.65;1.30;;;18.00;77.10;;;;;;5011722;28;20049;-83
2022/04/27 14:08:30;;;;;;;3.63;1.40;;;17.90;75.60;;;;;;5011257;28;20054;-83
2022/04/27 14:10:59;;;;;;;3.10;1.70;;;17.70;75.10;;;;;;5011418;28;20057;-83
2022/04/27 14:13:27;;;;;;;2.58;1.30;;;17.50;76.10;;;;;;5011493;28;20083;-83
2022/04/27 14:18:39;;;;;;;3.65;1.50;;;17.00;78.60;;;;;;5011343;28;20296;-83
2022/04/27 14:21:07;;;;;;;4.30;1.50;;;17.00;76.70;;;;;;5011153;28;20060;-83
2022/04/27 14:23:34;;;;;;;2.90;1.50;;;16.80;77.20;;;;;;5011424;28;20057;-83
2022/04/27 14:26:01;;;;;;;2.55;1.30;;;16.90;77.90;;;;;;5011146;28;20050;-84
2022/04/27 14:28:31;;;;;;;2.80;1.30;;;16.60;77.40;;;;;;5011196;28;20049;-83
2022/04/27 14:30:58;;;;;;;3.30;1.60;;;16.50;80.00;;;;;;5011202;28;20053;-83
2022/04/27 14:33:25;;;;;;;2.70;1.40;;;16.50;79.30;;;;;;5010751;28;20045;-83
2022/04/27 14:35:52;;;;;;;3.85;1.65;;;16.40;82.50;;;;;;5010895;28;20052;-82
2022/04/27 14:38:20;;;;;;;2.83;1.58;;;16.20;83.50;;;;;;5010993;28;20100;-82
2022/04/27 14:40:49;;;;;;;3.03;1.70;;;16.10;84.70;;;;;;5011478;28;20060;-81
2022/04/27 14:43:16;;;;;;;2.60;1.40;;;16.10;86.00;;;;;;5011852;28;20124;-81
2022/04/27 14:45:46;;;;;;;2.90;1.67;;;16.30;83.50;;;;;;5012804;28;20476;-80
2022/04/27 14:48:13;;;;;;;4.15;2.03;;;16.30;85.20;;;;;;5013064;28;20157;-81
2022/04/27 14:50:40;;;;;;;3.67;1.77;;;16.50;84.70;;;;;;5012993;28;20447;-80
2022/04/27 14:53:07;;;;;;;3.42;1.70;;;16.60;82.50;;;;;;5013313;28;20050;-81
2022/04/27 14:55:34;;;;;;;3.22;1.85;;;16.60;82.60;;;;;;5013911;28;20049;-81
2022/04/27 14:58:02;;;;;;;4.13;1.90;;;16.40;84.50;;;;;;5013198;28;20045;-81
2022/04/27 15:00:30;;;;;;;3.03;1.70;;;16.20;82.00;;;;;;5010679;28;20470;-82
2022/04/27 15:02:59;;;;;;;4.55;2.65;;;16.30;83.80;;;;;;5010392;28;20046;-80
2022/04/27 15:05:26;;;;;;;8.77;4.70;;;16.10;84.10;;;;;;5010913;28;20142;-80
2022/04/27 15:07:53;;;;;;;5.40;2.97;;;16.10;82.20;;;;;;5011496;28;20466;-81
2022/04/27 15:10:21;;;;;;;5.28;2.30;;;15.90;84.00;;;;;;5010218;28;20041;-81
2022/04/27 15:12:48;;;;;;;3.28;1.73;;;15.80;83.50;;;;;;5005637;28;20070;-81
2022/04/27 15:15:15;;;;;;;5.03;1.80;;;16.00;84.30;;;;;;5004101;28;20148;-81
2022/04/27 15:17:43;;;;;;;3.17;1.63;;;17.50;80.20;;;;;;5008893;28;20046;-81
2022/04/27 15:22:56;;;;;;;2.63;1.30;;;19.00;75.50;;;;;;5004564;28;20104;-81
2022/04/27 15:25:24;;;;;;;2.97;1.38;;;19.80;71.80;;;;;;5007608;28;20072;-81
2022/04/27 15:27:51;;;;;;;3.03;1.42;;;20.60;68.90;;;;;;5007868;28;20423;-81
2022/04/27 15:30:24;;;;;;;2.40;1.30;;;20.60;68.70;;;;;;5008059;28;20077;-82
2022/04/27 15:32:53;;;;;;;3.17;1.40;;;20.60;64.70;;;;;;5009278;28;20049;-81
2022/04/27 15:35:22;;;;;;;2.67;1.40;;;20.90;65.00;;;;;;5011766;28;20042;-82
2022/04/27 15:37:50;;;;;;;2.42;1.33;;;21.30;62.60;;;;;;5014230;28;20046;-82
2022/04/27 15:40:20;;;;;;;3.05;1.50;;;20.60;63.90;;;;;;5014216;28;20041;-82
2022/04/27 15:42:47;;;;;;;2.75;1.60;;;20.80;62.70;;;;;;5015172;28;20069;-82
2022/04/27 15:45:14;;;;;;;2.95;1.40;;;21.30;61.70;;;;;;5013880;28;20487;-83
2022/04/27 15:47:41;;;;;;;2.55;1.30;;;21.80;59.80;;;;;;5014437;28;20042;-82
2022/04/27 15:50:09;;;;;;;2.70;1.58;;;21.90;56.90;;;;;;5014145;28;20045;-83
2022/04/27 15:52:39;;;;;;;3.22;1.50;;;21.60;55.90;;;;;;5014321;28;20042;-82
2022/04/27 15:55:10;;;;;;;2.50;1.50;;;21.70;53.70;;;;;;5008637;28;20042;-81
2022/04/27 15:57:37;;;;;;;5.00;1.52;;;21.60;54.90;;;;;;5014472;28;20046;-82
2022/04/27 16:00:07;;;;;;;3.65;1.83;;;21.20;55.30;;;;;;5013277;28;20060;-81
2022/04/27 16:02:35;;;;;;;2.80;1.30;;;21.10;55.60;;;;;;5011944;28;20054;-84
2022/04/27 16:05:03;;;;;;;2.78;1.42;;;21.20;55.80;;;;;;5010162;28;20476;-81
2022/04/27 16:07:32;;;;;;;3.40;1.30;;;21.50;55.80;;;;;;5010738;28;20050;-82
2022/04/27 16:10:01;;;;;;;2.47;1.30;;;21.50;56.80;;;;;;5008806;28;20046;-82
2022/04/27 16:12:28;;;;;;;2.65;1.20;;;21.60;55.10;;;;;;5013473;28;20052;-82
2022/04/27 16:14:55;;;;;;;2.70;1.42;;;21.70;55.70;;;;;;5012432;28;20046;-79
2022/04/27 16:17:22;;;;;;;3.55;1.52;;;21.40;54.80;;;;;;5013231;28;20046;-82
2022/04/27 16:19:49;;;;;;;2.53;1.33;;;21.50;56.30;;;;;;5006330;28;20415;-83
2022/04/27 16:25:02;;;;;;;3.60;1.58;;;21.20;55.30;;;;;;5013630;28;20446;-83
2022/04/27 16:27:30;;;;;;;3.72;1.60;;;21.40;53.10;;;;;;5009926;28;20049;-84
2022/04/27 16:29:57;;;;;;;3.40;1.52;;;21.20;56.20;;;;;;5009733;28;20066;-82
2022/04/27 16:32:24;;;;;;;5.20;2.10;;;21.80;53.60;;;;;;5010934;28;20550;-82
2022/04/27 16:34:51;;;;;;;3.10;1.65;;;21.30;53.60;;;;;;5011620;28;20418;-82
2022/04/27 16:37:18;;;;;;;3.17;1.70;;;21.40;55.00;;;;;;5010028;28;20073;-86
2022/04/27 16:39:45;;;;;;;2.60;1.50;;;21.70;55.20;;;;;;5011643;28;20053;-82
2022/04/27 16:42:14;;;;;;;3.10;1.70;;;21.60;54.30;;;;;;5011122;28;20046;-85
2022/04/27 16:44:41;;;;;;;3.35;1.60;;;21.80;55.40;;;;;;5010362;28;20045;-86
2022/04/27 16:47:08;;;;;;;3.38;1.70;;;21.90;54.80;;;;;;5011632;28;20050;-86
2022/04/27 16:49:35;;;;;;;3.00;1.58;;;21.80;53.50;;;;;;5007514;28;20204;-82
2022/04/27 16:52:02;;;;;;;3.10;1.70;;;21.40;55.70;;;;;;5009697;28;20145;-84
2022/04/27 16:54:30;;;;;;;3.00;1.90;;;21.50;55.30;;;;;;5010710;28;20050;-84
2022/04/27 16:56:57;;;;;;;3.22;2.00;;;21.00;53.90;;;;;;5008609;28;20049;-85
2022/04/27 16:59:27;;;;;;;3.40;1.80;;;20.80;55.60;;;;;;5007318;28;20051;-83
2022/04/27 17:01:54;;;;;;;3.40;1.88;;;20.90;55.20;;;;;;5010065;28;20069;-81
2022/04/27 17:04:27;;;;;;;3.03;1.80;;;20.70;55.60;;;;;;5009393;28;22199;-84
2022/04/27 17:06:54;;;;;;;2.70;1.60;;;20.90;56.20;;;;;;5010150;28;20794;-83
2022/04/27 17:09:22;;;;;;;3.97;1.92;;;21.40;55.80;;;;;;5009928;28;20183;-84
2022/04/27 17:11:51;;;;;;;2.92;1.65;;;21.10;55.80;;;;;;5010568;28;20057;-85
2022/04/27 17:14:21;;;;;;;3.10;1.85;;;20.80;56.50;;;;;;5008214;28;20147;-85
2022/04/27 17:16:51;;;;;;;3.30;1.80;;;20.40;56.30;;;;;;5010329;28;20065;-84
2022/04/27 17:19:18;;;;;;;3.20;1.90;;;20.00;57.60;;;;;;5009483;28;20056;-82
2022/04/27 17:21:45;;;;;;;3.15;1.70;;;19.90;57.10;;;;;;5009325;28;20137;-85
2022/04/27 17:24:14;;;;;;;3.85;2.25;;;20.00;58.60;;;;;;5009320;28;20049;-85
2022/04/27 17:29:26;;;;;;;4.82;2.92;;;19.80;58.90;;;;;;5007957;28;20069;-83
2022/04/27 17:31:55;;;;;;;5.30;3.40;;;19.50;57.70;;;;;;5009519;28;20056;-85
2022/04/27 17:34:22;;;;;;;4.55;2.53;;;19.60;58.20;;;;;;5007812;28;20430;-84
2022/04/27 17:36:49;;;;;;;4.93;2.38;;;19.50;57.30;;;;;;5008593;28;20439;-82
2022/04/27 17:39:16;;;;;;;4.32;2.20;;;19.60;57.00;;;;;;5008903;28;20049;-80
2022/04/27 17:41:43;;;;;;;4.57;2.08;;;19.30;56.70;;;;;;5009682;28;20048;-81
2022/04/27 17:44:16;;;;;;;4.20;2.00;;;19.60;57.50;;;;;;5009442;28;20053;-81
2022/04/27 17:46:44;;;;;;;3.38;1.92;;;19.00;57.10;;;;;;5005618;28;20049;-82
2022/04/27 17:49:12;;;;;;;3.17;1.90;;;18.90;59.40;;;;;;5009445;28;20088;-81
2022/04/27 17:51:42;;;;;;;3.45;2.00;;;18.90;58.00;;;;;;5003665;28;20057;-83
2022/04/27 17:54:11;;;;;;;3.25;1.90;;;18.50;58.80;;;;;;4991888;28;20056;-82
2022/04/27 17:56:39;;;;;;;3.55;1.90;;;18.40;60.30;;;;;;5001156;28;20052;-84
2022/04/27 17:59:06;;;;;;;2.90;1.80;;;18.30;61.60;;;;;;5006694;28;20054;-81
2022/04/27 18:01:33;;;;;;;3.17;2.03;;;18.30;61.70;;;;;;5009929;28;20168;-81
2022/04/27 18:04:00;;;;;;;3.55;2.00;;;18.30;60.80;;;;;;5010060;28;20808;-80
2022/04/27 18:06:35;;;;;;;3.28;2.00;;;18.10;62.70;;;;;;5007851;28;20042;-80
2022/04/27 18:09:03;;;;;;;3.30;1.92;;;17.90;63.00;;;;;;5009556;28;20125;-81
2022/04/27 18:11:31;;;;;;;3.40;2.00;;;17.50;64.70;;;;;;5009485;28;20049;-82
2022/04/27 18:13:58;;;;;;;4.18;2.20;;;17.40;64.10;;;;;;5009114;28;20134;-82
2022/04/27 18:16:26;;;;;;;3.60;2.13;;;17.50;66.60;;;;;;5009075;28;20054;-82
2022/04/27 18:18:53;;;;;;;3.63;2.00;;;17.40;67.10;;;;;;5008976;28;20078;-82